sensor_id;sensor_type;location;lat;lon;timestamp;noise_LAeq;noise_LA_min;noise_LA_max;noise_LA01;noise_LA95
68279;Laerm;55108;51.790;10.960;2023-12-20T00:00:54;38.83;37.53;46.86;;
68279;Laerm;55108;51.790;10.960;2023-12-20T00:03:19;51.09;37.51;67.26;;
68279;Laerm;55108;51.790;10.960;2023-12-20T00:05:45;38.88;37.07;48.84;;
68279;Laerm;55108;51.790;10.960;2023-12-20T00:08:11;38.73;37.12;46.85;;
68279;Laerm;55108;51.790;10.960;2023-12-20T00:10:37;38.54;37.21;45.90;;
68279;Laerm;55108;51.790;10.960;2023-12-20T00:13:02;55.32;37.34;70.27;;
68279;Laerm;55108;51.790;10.960;2023-12-20T00:15:28;40.87;37.57;54.91;;
68279;Laerm;55108;51.790;10.960;2023-12-20T00:17:54;40.37;37.56;55.87;;
68279;Laerm;55108;51.790;10.960;2023-12-20T00:20:19;38.93;37.56;45.76;;
68279;Laerm;55108;51.790;10.960;2023-12-20T00:22:45;41.42;37.52;55.07;;
68279;Laerm;55108;51.790;10.960;2023-12-20T00:25:11;51.31;37.76;68.79;;
68279;Laerm;55108;51.790;10.960;2023-12-20T00:27:37;39.28;37.35;48.70;;
68279;Laerm;55108;51.790;10.960;2023-12-20T00:30:02;62.20;37.86;80.90;;
68279;Laerm;55108;51.790;10.960;2023-12-20T00:32:28;52.02;37.24;67.44;;
68279;Laerm;55108;51.790;10.960;2023-12-20T00:34:54;39.48;37.20;53.72;;
68279;Laerm;55108;51.790;10.960;2023-12-20T00:37:20;48.59;37.55;63.89;;
68279;Laerm;55108;51.790;10.960;2023-12-20T00:39:45;51.01;37.35;68.12;;
68279;Laerm;55108;51.790;10.960;2023-12-20T00:42:11;40.19;37.05;59.00;;
68279;Laerm;55108;51.790;10.960;2023-12-20T00:44:37;41.15;37.14;60.36;;
68279;Laerm;55108;51.790;10.960;2023-12-20T00:47:02;39.62;37.43;52.30;;
68279;Laerm;55108;51.790;10.960;2023-12-20T00:49:28;39.89;37.14;51.06;;
68279;Laerm;55108;51.790;10.960;2023-12-20T00:51:54;39.58;37.19;52.93;;
68279;Laerm;55108;51.790;10.960;2023-12-20T00:54:19;38.98;37.42;48.09;;
68279;Laerm;55108;51.790;10.960;2023-12-20T00:56:45;40.09;37.38;51.56;;
68279;Laerm;55108;51.790;10.960;2023-12-20T00:59:11;40.36;37.27;51.12;;
68279;Laerm;55108;51.790;10.960;2023-12-20T01:01:37;39.56;37.04;50.49;;
68279;Laerm;55108;51.790;10.960;2023-12-20T01:04:03;39.28;37.18;48.58;;
68279;Laerm;55108;51.790;10.960;2023-12-20T01:06:29;39.05;37.19;46.80;;
68279;Laerm;55108;51.790;10.960;2023-12-20T01:08:54;39.35;37.45;47.71;;
68279;Laerm;55108;51.790;10.960;2023-12-20T01:11:20;40.26;37.08;52.40;;
68279;Laerm;55108;51.790;10.960;2023-12-20T01:13:47;38.84;36.95;46.66;;
68279;Laerm;55108;51.790;10.960;2023-12-20T01:16:12;39.26;37.06;48.13;;
68279;Laerm;55108;51.790;10.960;2023-12-20T01:18:38;38.83;37.25;48.41;;
68279;Laerm;55108;51.790;10.960;2023-12-20T01:21:04;39.61;37.27;50.12;;
68279;Laerm;55108;51.790;10.960;2023-12-20T01:23:30;38.71;37.22;46.45;;
68279;Laerm;55108;51.790;10.960;2023-12-20T01:25:56;40.09;37.07;54.47;;
68279;Laerm;55108;51.790;10.960;2023-12-20T01:28:21;53.76;37.33;71.08;;
68279;Laerm;55108;51.790;10.960;2023-12-20T01:30:47;38.31;36.98;48.09;;
68279;Laerm;55108;51.790;10.960;2023-12-20T01:33:13;38.60;37.14;48.33;;
68279;Laerm;55108;51.790;10.960;2023-12-20T01:35:39;38.61;37.23;48.95;;
68279;Laerm;55108;51.790;10.960;2023-12-20T01:38:04;39.37;37.07;50.41;;
68279;Laerm;55108;51.790;10.960;2023-12-20T01:40:30;39.10;37.11;47.38;;
68279;Laerm;55108;51.790;10.960;2023-12-20T01:42:59;59.37;37.32;77.05;;
68279;Laerm;55108;51.790;10.960;2023-12-20T01:45:25;40.03;37.38;53.80;;
68279;Laerm;55108;51.790;10.960;2023-12-20T01:47:51;39.11;37.27;48.14;;
68279;Laerm;55108;51.790;10.960;2023-12-20T01:50:17;50.25;37.00;69.06;;
68279;Laerm;55108;51.790;10.960;2023-12-20T01:52:43;38.59;37.09;49.07;;
68279;Laerm;55108;51.790;10.960;2023-12-20T01:55:10;38.84;37.06;52.03;;
68279;Laerm;55108;51.790;10.960;2023-12-20T01:57:41;38.42;37.09;43.96;;
68279;Laerm;55108;51.790;10.960;2023-12-20T02:00:08;39.24;37.07;49.49;;
68279;Laerm;55108;51.790;10.960;2023-12-20T02:02:35;39.01;36.91;49.48;;
68279;Laerm;55108;51.790;10.960;2023-12-20T02:05:02;38.05;36.94;46.37;;
68279;Laerm;55108;51.790;10.960;2023-12-20T02:07:28;37.98;36.82;44.84;;
68279;Laerm;55108;51.790;10.960;2023-12-20T02:09:54;37.90;36.82;47.83;;
68279;Laerm;55108;51.790;10.960;2023-12-20T02:12:20;38.72;36.90;47.65;;
68279;Laerm;55108;51.790;10.960;2023-12-20T02:14:47;37.79;36.78;42.57;;
68279;Laerm;55108;51.790;10.960;2023-12-20T02:17:12;37.60;36.63;52.04;;
68279;Laerm;55108;51.790;10.960;2023-12-20T02:19:38;52.84;36.45;72.19;;
68279;Laerm;55108;51.790;10.960;2023-12-20T02:22:06;40.09;36.70;59.78;;
68279;Laerm;55108;51.790;10.960;2023-12-20T02:24:31;37.60;36.74;44.07;;
68279;Laerm;55108;51.790;10.960;2023-12-20T02:26:57;37.41;36.67;40.71;;
68279;Laerm;55108;51.790;10.960;2023-12-20T02:29:23;54.69;36.73;70.51;;
68279;Laerm;55108;51.790;10.960;2023-12-20T02:31:49;48.89;36.69;70.28;;
68279;Laerm;55108;51.790;10.960;2023-12-20T02:34:15;53.22;36.59;75.22;;
68279;Laerm;55108;51.790;10.960;2023-12-20T02:36:40;37.24;36.40;38.21;;
68279;Laerm;55108;51.790;10.960;2023-12-20T02:39:06;38.79;36.61;47.15;;
68279;Laerm;55108;51.790;10.960;2023-12-20T02:41:32;37.25;36.52;38.80;;
68279;Laerm;55108;51.790;10.960;2023-12-20T02:43:57;54.04;36.66;71.31;;
68279;Laerm;55108;51.790;10.960;2023-12-20T02:46:23;59.19;36.59;77.79;;
68279;Laerm;55108;51.790;10.960;2023-12-20T02:48:49;59.20;36.74;78.38;;
68279;Laerm;55108;51.790;10.960;2023-12-20T02:51:15;51.84;36.71;68.70;;
68279;Laerm;55108;51.790;10.960;2023-12-20T02:53:40;37.37;36.72;38.63;;
68279;Laerm;55108;51.790;10.960;2023-12-20T02:56:06;53.49;36.76;72.02;;
68279;Laerm;55108;51.790;10.960;2023-12-20T02:58:32;37.47;36.71;38.89;;
68279;Laerm;55108;51.790;10.960;2023-12-20T03:00:58;37.41;36.59;38.36;;
68279;Laerm;55108;51.790;10.960;2023-12-20T03:03:24;37.52;36.68;39.95;;
68279;Laerm;55108;51.790;10.960;2023-12-20T03:05:50;62.54;37.47;77.01;;
68279;Laerm;55108;51.790;10.960;2023-12-20T03:08:15;51.94;36.67;68.85;;
68279;Laerm;55108;51.790;10.960;2023-12-20T03:10:41;37.49;36.87;38.80;;
68279;Laerm;55108;51.790;10.960;2023-12-20T03:13:07;61.70;37.17;80.00;;
68279;Laerm;55108;51.790;10.960;2023-12-20T03:15:33;62.56;37.40;78.44;;
68279;Laerm;55108;51.790;10.960;2023-12-20T03:17:58;59.59;36.88;76.84;;
68279;Laerm;55108;51.790;10.960;2023-12-20T03:20:24;52.65;37.09;73.18;;
68279;Laerm;55108;51.790;10.960;2023-12-20T03:22:51;39.72;36.75;54.21;;
68279;Laerm;55108;51.790;10.960;2023-12-20T03:25:17;37.51;36.70;41.78;;
68279;Laerm;55108;51.790;10.960;2023-12-20T03:27:42;37.46;36.59;38.37;;
68279;Laerm;55108;51.790;10.960;2023-12-20T03:30:08;59.17;37.22;75.33;;
68279;Laerm;55108;51.790;10.960;2023-12-20T03:32:34;53.22;36.73;69.05;;
68279;Laerm;55108;51.790;10.960;2023-12-20T03:35:00;38.87;36.54;48.79;;
68279;Laerm;55108;51.790;10.960;2023-12-20T03:37:25;59.17;36.54;75.31;;
68279;Laerm;55108;51.790;10.960;2023-12-20T03:39:51;39.78;36.57;53.38;;
68279;Laerm;55108;51.790;10.960;2023-12-20T03:42:17;60.70;36.43;77.12;;
68279;Laerm;55108;51.790;10.960;2023-12-20T03:44:42;53.20;36.53;67.98;;
68279;Laerm;55108;51.790;10.960;2023-12-20T03:47:08;58.87;36.71;77.60;;
68279;Laerm;55108;51.790;10.960;2023-12-20T03:49:34;58.97;36.59;74.10;;
68279;Laerm;55108;51.790;10.960;2023-12-20T03:52:02;57.87;37.05;68.40;;
68279;Laerm;55108;51.790;10.960;2023-12-20T03:54:28;38.79;36.94;42.00;;
68279;Laerm;55108;51.790;10.960;2023-12-20T03:56:53;60.84;36.65;80.49;;
68279;Laerm;55108;51.790;10.960;2023-12-20T03:59:19;37.98;36.64;41.53;;
68279;Laerm;55108;51.790;10.960;2023-12-20T04:01:45;37.89;36.62;42.31;;
68279;Laerm;55108;51.790;10.960;2023-12-20T04:04:11;38.48;36.69;45.26;;
68279;Laerm;55108;51.790;10.960;2023-12-20T04:06:37;62.12;37.24;81.41;;
68279;Laerm;55108;51.790;10.960;2023-12-20T04:09:03;60.98;36.64;77.24;;
68279;Laerm;55108;51.790;10.960;2023-12-20T04:11:29;59.44;36.88;78.05;;
68279;Laerm;55108;51.790;10.960;2023-12-20T04:13:55;58.88;36.63;77.82;;
68279;Laerm;55108;51.790;10.960;2023-12-20T04:16:21;54.84;36.85;70.65;;
68279;Laerm;55108;51.790;10.960;2023-12-20T04:18:46;63.87;37.26;78.88;;
68279;Laerm;55108;51.790;10.960;2023-12-20T04:21:12;63.09;36.49;77.37;;
68279;Laerm;55108;51.790;10.960;2023-12-20T04:23:38;58.41;36.16;74.93;;
68279;Laerm;55108;51.790;10.960;2023-12-20T04:26:03;62.52;38.96;78.09;;
68279;Laerm;55108;51.790;10.960;2023-12-20T04:28:29;58.65;35.58;73.53;;
68279;Laerm;55108;51.790;10.960;2023-12-20T04:30:55;56.87;36.37;69.96;;
68279;Laerm;55108;51.790;10.960;2023-12-20T04:33:21;60.68;35.87;74.58;;
68279;Laerm;55108;51.790;10.960;2023-12-20T04:35:47;56.97;36.04;69.68;;
68279;Laerm;55108;51.790;10.960;2023-12-20T04:38:13;59.79;36.79;76.77;;
68279;Laerm;55108;51.790;10.960;2023-12-20T04:40:39;63.83;36.81;77.52;;
68279;Laerm;55108;51.790;10.960;2023-12-20T04:43:06;61.44;36.89;78.74;;
68279;Laerm;55108;51.790;10.960;2023-12-20T04:45:31;59.43;36.85;69.74;;
68279;Laerm;55108;51.790;10.960;2023-12-20T04:47:57;61.37;35.59;73.80;;
68279;Laerm;55108;51.790;10.960;2023-12-20T04:50:23;64.03;37.31;80.34;;
68279;Laerm;55108;51.790;10.960;2023-12-20T04:52:48;63.44;37.71;74.26;;
68279;Laerm;55108;51.790;10.960;2023-12-20T04:55:14;62.74;37.01;77.05;;
68279;Laerm;55108;51.790;10.960;2023-12-20T04:57:40;60.34;36.70;74.58;;
68279;Laerm;55108;51.790;10.960;2023-12-20T05:00:06;60.79;37.17;74.98;;
68279;Laerm;55108;51.790;10.960;2023-12-20T05:02:33;62.08;37.74;74.41;;
68279;Laerm;55108;51.790;10.960;2023-12-20T05:04:59;60.73;36.74;73.53;;
68279;Laerm;55108;51.790;10.960;2023-12-20T05:07:25;63.32;38.70;77.85;;
68279;Laerm;55108;51.790;10.960;2023-12-20T05:09:50;61.13;37.41;74.28;;
68279;Laerm;55108;51.790;10.960;2023-12-20T05:12:16;65.85;38.34;80.74;;
68279;Laerm;55108;51.790;10.960;2023-12-20T05:14:42;61.08;37.04;75.05;;
68279;Laerm;55108;51.790;10.960;2023-12-20T05:17:07;62.15;38.28;72.81;;
68279;Laerm;55108;51.790;10.960;2023-12-20T05:19:33;58.90;37.49;70.13;;
68279;Laerm;55108;51.790;10.960;2023-12-20T05:22:02;64.04;36.98;78.21;;
68279;Laerm;55108;51.790;10.960;2023-12-20T05:24:28;57.31;37.49;72.16;;
68279;Laerm;55108;51.790;10.960;2023-12-20T05:26:53;62.20;37.35;77.21;;
68279;Laerm;55108;51.790;10.960;2023-12-20T05:29:19;64.17;41.10;74.48;;
68279;Laerm;55108;51.790;10.960;2023-12-20T05:31:45;61.56;37.84;74.97;;
68279;Laerm;55108;51.790;10.960;2023-12-20T05:34:11;63.71;38.07;77.52;;
68279;Laerm;55108;51.790;10.960;2023-12-20T05:36:36;63.21;42.87;75.24;;
68279;Laerm;55108;51.790;10.960;2023-12-20T05:39:02;64.37;42.74;78.44;;
68279;Laerm;55108;51.790;10.960;2023-12-20T05:41:32;65.88;37.20;80.11;;
68279;Laerm;55108;51.790;10.960;2023-12-20T05:43:58;62.22;39.52;73.71;;
68279;Laerm;55108;51.790;10.960;2023-12-20T05:46:24;64.84;41.39;76.38;;
68279;Laerm;55108;51.790;10.960;2023-12-20T05:48:50;61.23;38.99;71.17;;
68279;Laerm;55108;51.790;10.960;2023-12-20T05:51:16;61.62;39.91;73.14;;
68279;Laerm;55108;51.790;10.960;2023-12-20T05:53:42;63.57;43.13;76.17;;
68279;Laerm;55108;51.790;10.960;2023-12-20T05:56:09;59.52;39.08;73.82;;
68279;Laerm;55108;51.790;10.960;2023-12-20T05:58:34;63.97;38.19;77.33;;
68279;Laerm;55108;51.790;10.960;2023-12-20T06:01:00;59.94;39.31;71.24;;
68279;Laerm;55108;51.790;10.960;2023-12-20T06:03:26;62.24;38.82;77.11;;
68279;Laerm;55108;51.790;10.960;2023-12-20T06:05:51;62.16;39.98;76.40;;
68279;Laerm;55108;51.790;10.960;2023-12-20T06:08:17;66.04;38.87;80.00;;
68279;Laerm;55108;51.790;10.960;2023-12-20T06:10:43;62.34;39.04;73.57;;
68279;Laerm;55108;51.790;10.960;2023-12-20T06:13:09;62.63;41.76;74.55;;
68279;Laerm;55108;51.790;10.960;2023-12-20T06:15:34;63.63;39.25;72.17;;
68279;Laerm;55108;51.790;10.960;2023-12-20T06:18:00;64.54;40.50;80.30;;
68279;Laerm;55108;51.790;10.960;2023-12-20T06:20:26;62.44;41.01;74.38;;
68279;Laerm;55108;51.790;10.960;2023-12-20T06:22:52;64.95;47.57;78.43;;
68279;Laerm;55108;51.790;10.960;2023-12-20T06:25:18;64.76;43.14;77.44;;
68279;Laerm;55108;51.790;10.960;2023-12-20T06:27:44;65.61;43.33;77.22;;
68279;Laerm;55108;51.790;10.960;2023-12-20T06:30:09;65.59;41.14;79.37;;
68279;Laerm;55108;51.790;10.960;2023-12-20T06:32:35;62.23;40.11;75.42;;
68279;Laerm;55108;51.790;10.960;2023-12-20T06:35:02;64.36;41.47;79.72;;
68279;Laerm;55108;51.790;10.960;2023-12-20T06:37:29;62.05;42.75;77.74;;
68279;Laerm;55108;51.790;10.960;2023-12-20T06:39:55;62.58;40.82;73.22;;
68279;Laerm;55108;51.790;10.960;2023-12-20T06:42:22;61.30;40.61;74.21;;
68279;Laerm;55108;51.790;10.960;2023-12-20T06:44:47;63.24;41.27;74.38;;
68279;Laerm;55108;51.790;10.960;2023-12-20T06:47:13;65.77;39.90;78.40;;
68279;Laerm;55108;51.790;10.960;2023-12-20T06:49:39;65.31;42.17;78.99;;
68279;Laerm;55108;51.790;10.960;2023-12-20T06:52:05;65.25;44.74;80.23;;
68279;Laerm;55108;51.790;10.960;2023-12-20T06:54:31;63.86;40.56;75.39;;
68279;Laerm;55108;51.790;10.960;2023-12-20T06:56:59;65.82;47.59;76.48;;
68279;Laerm;55108;51.790;10.960;2023-12-20T06:59:24;63.50;42.61;73.89;;
68279;Laerm;55108;51.790;10.960;2023-12-20T07:01:51;63.55;42.31;77.68;;
68279;Laerm;55108;51.790;10.960;2023-12-20T07:04:17;65.10;41.04;81.91;;
68279;Laerm;55108;51.790;10.960;2023-12-20T07:06:45;63.38;41.38;77.48;;
68279;Laerm;55108;51.790;10.960;2023-12-20T07:09:11;63.91;48.38;75.25;;
68279;Laerm;55108;51.790;10.960;2023-12-20T07:11:38;64.38;41.00;78.14;;
68279;Laerm;55108;51.790;10.960;2023-12-20T07:14:04;56.45;39.02;70.75;;
68279;Laerm;55108;51.790;10.960;2023-12-20T07:16:29;58.83;39.88;69.67;;
68279;Laerm;55108;51.790;10.960;2023-12-20T07:18:55;61.29;40.12;73.37;;
68279;Laerm;55108;51.790;10.960;2023-12-20T07:21:22;61.89;38.89;76.43;;
68279;Laerm;55108;51.790;10.960;2023-12-20T07:23:47;64.84;38.66;76.98;;
68279;Laerm;55108;51.790;10.960;2023-12-20T07:26:13;64.43;45.15;76.74;;
68279;Laerm;55108;51.790;10.960;2023-12-20T07:28:39;62.70;43.01;72.22;;
68279;Laerm;55108;51.790;10.960;2023-12-20T07:31:05;63.08;41.88;77.05;;
68279;Laerm;55108;51.790;10.960;2023-12-20T07:33:31;61.69;40.70;71.25;;
68279;Laerm;55108;51.790;10.960;2023-12-20T07:35:57;64.91;43.75;77.63;;
68279;Laerm;55108;51.790;10.960;2023-12-20T07:38:22;60.50;40.72;72.65;;
68279;Laerm;55108;51.790;10.960;2023-12-20T07:40:48;64.32;41.89;74.89;;
68279;Laerm;55108;51.790;10.960;2023-12-20T07:43:14;63.81;44.99;73.40;;
68279;Laerm;55108;51.790;10.960;2023-12-20T07:45:40;62.64;39.75;73.81;;
68279;Laerm;55108;51.790;10.960;2023-12-20T07:48:06;64.93;40.95;79.44;;
68279;Laerm;55108;51.790;10.960;2023-12-20T07:50:32;63.89;41.24;79.40;;
68279;Laerm;55108;51.790;10.960;2023-12-20T07:52:57;65.47;41.00;76.30;;
68279;Laerm;55108;51.790;10.960;2023-12-20T07:55:25;63.09;45.26;73.59;;
68279;Laerm;55108;51.790;10.960;2023-12-20T07:57:51;64.56;42.28;76.38;;
68279;Laerm;55108;51.790;10.960;2023-12-20T08:00:17;65.07;40.68;80.14;;
68279;Laerm;55108;51.790;10.960;2023-12-20T08:02:43;67.25;46.73;78.58;;
68279;Laerm;55108;51.790;10.960;2023-12-20T08:05:08;66.16;50.77;78.76;;
68279;Laerm;55108;51.790;10.960;2023-12-20T08:07:34;63.49;37.88;76.92;;
68279;Laerm;55108;51.790;10.960;2023-12-20T08:10:00;64.04;40.67;74.26;;
68279;Laerm;55108;51.790;10.960;2023-12-20T08:12:26;64.12;44.77;74.13;;
68279;Laerm;55108;51.790;10.960;2023-12-20T08:14:52;62.53;41.04;75.70;;
68279;Laerm;55108;51.790;10.960;2023-12-20T08:17:18;64.34;43.53;78.74;;
68279;Laerm;55108;51.790;10.960;2023-12-20T08:19:44;65.83;43.86;85.13;;
68279;Laerm;55108;51.790;10.960;2023-12-20T08:22:10;63.73;42.57;75.73;;
68279;Laerm;55108;51.790;10.960;2023-12-20T08:24:36;66.08;48.01;77.57;;
68279;Laerm;55108;51.790;10.960;2023-12-20T08:27:02;64.72;46.73;75.35;;
68279;Laerm;55108;51.790;10.960;2023-12-20T08:29:28;65.28;43.36;78.87;;
68279;Laerm;55108;51.790;10.960;2023-12-20T08:31:54;67.78;42.96;78.50;;
68279;Laerm;55108;51.790;10.960;2023-12-20T08:34:20;66.76;44.06;81.55;;
68279;Laerm;55108;51.790;10.960;2023-12-20T08:36:46;63.93;48.41;73.89;;
68279;Laerm;55108;51.790;10.960;2023-12-20T08:39:12;63.03;41.29;73.26;;
68279;Laerm;55108;51.790;10.960;2023-12-20T08:41:37;62.41;40.06;75.87;;
68279;Laerm;55108;51.790;10.960;2023-12-20T08:44:03;63.40;42.12;79.27;;
68279;Laerm;55108;51.790;10.960;2023-12-20T08:46:29;65.27;42.02;78.05;;
68279;Laerm;55108;51.790;10.960;2023-12-20T08:48:55;64.36;44.39;83.88;;
68279;Laerm;55108;51.790;10.960;2023-12-20T08:51:20;63.23;43.63;72.58;;
68279;Laerm;55108;51.790;10.960;2023-12-20T08:53:48;67.40;42.38;79.90;;
68279;Laerm;55108;51.790;10.960;2023-12-20T08:56:14;63.96;47.37;73.92;;
68279;Laerm;55108;51.790;10.960;2023-12-20T08:58:40;65.43;44.73;78.72;;
68279;Laerm;55108;51.790;10.960;2023-12-20T09:01:06;64.76;46.10;74.68;;
68279;Laerm;55108;51.790;10.960;2023-12-20T09:03:32;64.96;43.74;74.61;;
68279;Laerm;55108;51.790;10.960;2023-12-20T09:05:58;64.49;41.12;74.91;;
68279;Laerm;55108;51.790;10.960;2023-12-20T09:08:24;64.20;46.16;74.95;;
68279;Laerm;55108;51.790;10.960;2023-12-20T09:10:49;64.55;45.98;77.54;;
68279;Laerm;55108;51.790;10.960;2023-12-20T09:13:15;64.36;43.19;78.37;;
68279;Laerm;55108;51.790;10.960;2023-12-20T09:15:41;66.49;43.49;78.90;;
68279;Laerm;55108;51.790;10.960;2023-12-20T09:18:07;64.94;41.74;74.77;;
68279;Laerm;55108;51.790;10.960;2023-12-20T09:20:33;63.44;41.38;78.53;;
68279;Laerm;55108;51.790;10.960;2023-12-20T09:22:59;66.39;44.09;81.76;;
68279;Laerm;55108;51.790;10.960;2023-12-20T09:25:24;66.49;45.52;75.71;;
68279;Laerm;55108;51.790;10.960;2023-12-20T09:27:51;65.42;47.04;76.57;;
68279;Laerm;55108;51.790;10.960;2023-12-20T09:30:17;64.94;46.36;77.35;;
68279;Laerm;55108;51.790;10.960;2023-12-20T09:32:43;63.69;43.45;74.68;;
68279;Laerm;55108;51.790;10.960;2023-12-20T09:35:08;66.59;42.35;81.55;;
68279;Laerm;55108;51.790;10.960;2023-12-20T09:37:34;66.28;44.22;80.57;;
68279;Laerm;55108;51.790;10.960;2023-12-20T09:40:00;65.70;45.37;78.74;;
68279;Laerm;55108;51.790;10.960;2023-12-20T09:42:30;65.55;47.13;83.45;;
68279;Laerm;55108;51.790;10.960;2023-12-20T09:45:00;65.69;42.41;78.45;;
68279;Laerm;55108;51.790;10.960;2023-12-20T09:47:28;67.88;48.48;77.69;;
68279;Laerm;55108;51.790;10.960;2023-12-20T09:49:54;66.01;42.56;77.38;;
68279;Laerm;55108;51.790;10.960;2023-12-20T09:52:20;64.69;42.79;75.39;;
68279;Laerm;55108;51.790;10.960;2023-12-20T09:54:47;63.27;42.33;73.56;;
68279;Laerm;55108;51.790;10.960;2023-12-20T09:57:15;65.01;48.38;76.29;;
68279;Laerm;55108;51.790;10.960;2023-12-20T09:59:40;67.41;48.21;79.98;;
68279;Laerm;55108;51.790;10.960;2023-12-20T10:02:07;66.12;48.68;81.15;;
68279;Laerm;55108;51.790;10.960;2023-12-20T10:04:36;63.15;43.46;73.19;;
68279;Laerm;55108;51.790;10.960;2023-12-20T10:07:02;66.22;42.17;78.97;;
68279;Laerm;55108;51.790;10.960;2023-12-20T10:09:31;62.77;43.96;76.19;;
68279;Laerm;55108;51.790;10.960;2023-12-20T10:11:57;62.76;43.47;74.45;;
68279;Laerm;55108;51.790;10.960;2023-12-20T10:14:23;64.04;44.48;75.64;;
68279;Laerm;55108;51.790;10.960;2023-12-20T10:16:49;64.53;43.84;75.00;;
68279;Laerm;55108;51.790;10.960;2023-12-20T10:19:16;63.04;42.86;72.75;;
68279;Laerm;55108;51.790;10.960;2023-12-20T10:21:42;63.82;43.12;74.21;;
68279;Laerm;55108;51.790;10.960;2023-12-20T10:24:09;65.34;41.87;80.06;;
68279;Laerm;55108;51.790;10.960;2023-12-20T10:26:42;67.18;46.99;78.02;;
68279;Laerm;55108;51.790;10.960;2023-12-20T10:29:07;63.25;44.54;73.39;;
68279;Laerm;55108;51.790;10.960;2023-12-20T10:31:33;65.35;48.08;77.75;;
68279;Laerm;55108;51.790;10.960;2023-12-20T10:34:01;65.43;47.99;78.30;;
68279;Laerm;55108;51.790;10.960;2023-12-20T10:36:31;65.53;43.84;76.85;;
68279;Laerm;55108;51.790;10.960;2023-12-20T10:38:57;63.97;45.45;76.25;;
68279;Laerm;55108;51.790;10.960;2023-12-20T10:41:26;64.82;42.40;79.95;;
68279;Laerm;55108;51.790;10.960;2023-12-20T10:43:59;62.29;43.44;72.14;;
68279;Laerm;55108;51.790;10.960;2023-12-20T10:46:25;64.59;42.55;74.30;;
68279;Laerm;55108;51.790;10.960;2023-12-20T10:48:53;63.44;46.72;71.16;;
68279;Laerm;55108;51.790;10.960;2023-12-20T10:51:19;64.98;43.54;77.72;;
68279;Laerm;55108;51.790;10.960;2023-12-20T10:53:46;64.50;47.13;76.35;;
68279;Laerm;55108;51.790;10.960;2023-12-20T10:56:15;64.42;44.05;76.87;;
68279;Laerm;55108;51.790;10.960;2023-12-20T10:58:42;64.53;42.72;77.54;;
68279;Laerm;55108;51.790;10.960;2023-12-20T11:01:08;64.97;45.90;76.32;;
68279;Laerm;55108;51.790;10.960;2023-12-20T11:03:35;65.66;47.01;76.25;;
68279;Laerm;55108;51.790;10.960;2023-12-20T11:06:04;65.23;46.25;76.17;;
68279;Laerm;55108;51.790;10.960;2023-12-20T11:08:35;64.82;45.58;75.89;;
68279;Laerm;55108;51.790;10.960;2023-12-20T11:11:09;64.04;43.52;76.63;;
68279;Laerm;55108;51.790;10.960;2023-12-20T11:13:43;65.25;43.53;78.54;;
68279;Laerm;55108;51.790;10.960;2023-12-20T11:16:13;66.86;43.28;80.78;;
68279;Laerm;55108;51.790;10.960;2023-12-20T11:18:40;63.11;44.99;73.85;;
68279;Laerm;55108;51.790;10.960;2023-12-20T11:21:06;63.88;45.62;73.86;;
68279;Laerm;55108;51.790;10.960;2023-12-20T11:23:32;64.89;42.81;77.70;;
68279;Laerm;55108;51.790;10.960;2023-12-20T11:26:01;65.23;43.43;77.93;;
68279;Laerm;55108;51.790;10.960;2023-12-20T11:28:27;63.91;47.89;73.08;;
68279;Laerm;55108;51.790;10.960;2023-12-20T11:30:55;63.76;48.47;76.47;;
68279;Laerm;55108;51.790;10.960;2023-12-20T11:33:25;63.99;45.48;72.86;;
68279;Laerm;55108;51.790;10.960;2023-12-20T11:35:51;64.01;45.78;78.12;;
68279;Laerm;55108;51.790;10.960;2023-12-20T11:38:16;65.14;46.07;78.57;;
68279;Laerm;55108;51.790;10.960;2023-12-20T11:40:42;63.32;44.04;72.64;;
68279;Laerm;55108;51.790;10.960;2023-12-20T11:43:08;63.31;41.42;76.85;;
68279;Laerm;55108;51.790;10.960;2023-12-20T11:45:34;63.07;42.43;73.08;;
68279;Laerm;55108;51.790;10.960;2023-12-20T11:48:01;63.82;43.13;79.41;;
68279;Laerm;55108;51.790;10.960;2023-12-20T11:50:27;63.87;44.46;74.15;;
68279;Laerm;55108;51.790;10.960;2023-12-20T11:52:54;66.10;44.52;79.62;;
68279;Laerm;55108;51.790;10.960;2023-12-20T11:55:21;64.55;45.42;74.37;;
68279;Laerm;55108;51.790;10.960;2023-12-20T11:57:47;67.14;52.23;74.91;;
68279;Laerm;55108;51.790;10.960;2023-12-20T12:00:13;66.92;50.31;79.39;;
68279;Laerm;55108;51.790;10.960;2023-12-20T12:02:39;65.22;48.50;75.80;;
68279;Laerm;55108;51.790;10.960;2023-12-20T12:05:05;65.08;47.60;79.58;;
68279;Laerm;55108;51.790;10.960;2023-12-20T12:07:31;64.33;49.99;80.68;;
68279;Laerm;55108;51.790;10.960;2023-12-20T12:09:56;63.68;45.87;76.81;;
68279;Laerm;55108;51.790;10.960;2023-12-20T12:12:22;69.42;53.47;80.39;;
68279;Laerm;55108;51.790;10.960;2023-12-20T12:14:50;65.70;43.47;76.69;;
68279;Laerm;55108;51.790;10.960;2023-12-20T12:17:16;57.56;41.03;72.21;;
68279;Laerm;55108;51.790;10.960;2023-12-20T12:19:42;65.88;46.11;77.24;;
68279;Laerm;55108;51.790;10.960;2023-12-20T12:22:11;66.17;45.14;77.53;;
68279;Laerm;55108;51.790;10.960;2023-12-20T12:24:39;63.37;42.33;78.98;;
68279;Laerm;55108;51.790;10.960;2023-12-20T12:27:08;64.33;43.77;75.69;;
68279;Laerm;55108;51.790;10.960;2023-12-20T12:29:34;66.37;43.73;81.82;;
68279;Laerm;55108;51.790;10.960;2023-12-20T12:32:00;62.58;42.50;75.08;;
68279;Laerm;55108;51.790;10.960;2023-12-20T12:34:28;66.58;46.50;80.54;;
68279;Laerm;55108;51.790;10.960;2023-12-20T12:36:54;63.17;44.16;73.04;;
68279;Laerm;55108;51.790;10.960;2023-12-20T12:39:20;66.32;43.82;80.95;;
68279;Laerm;55108;51.790;10.960;2023-12-20T12:41:46;66.27;40.43;78.20;;
68279;Laerm;55108;51.790;10.960;2023-12-20T12:44:12;65.70;41.87;78.70;;
68279;Laerm;55108;51.790;10.960;2023-12-20T12:46:38;64.91;45.44;73.56;;
68279;Laerm;55108;51.790;10.960;2023-12-20T12:49:04;62.16;44.39;71.34;;
68279;Laerm;55108;51.790;10.960;2023-12-20T12:51:29;66.67;42.22;79.06;;
68279;Laerm;55108;51.790;10.960;2023-12-20T12:53:55;64.21;40.70;74.55;;
68279;Laerm;55108;51.790;10.960;2023-12-20T12:56:21;67.72;42.83;82.60;;
68279;Laerm;55108;51.790;10.960;2023-12-20T12:58:47;65.37;42.06;77.36;;
68279;Laerm;55108;51.790;10.960;2023-12-20T13:01:13;65.69;45.28;80.58;;
68279;Laerm;55108;51.790;10.960;2023-12-20T13:03:39;65.82;44.83;78.33;;
68279;Laerm;55108;51.790;10.960;2023-12-20T13:06:05;66.50;45.26;80.01;;
68279;Laerm;55108;51.790;10.960;2023-12-20T13:08:31;65.53;43.76;80.46;;
68279;Laerm;55108;51.790;10.960;2023-12-20T13:10:56;67.23;42.12;80.32;;
68279;Laerm;55108;51.790;10.960;2023-12-20T13:13:25;62.33;41.93;81.39;;
68279;Laerm;55108;51.790;10.960;2023-12-20T13:15:51;66.83;51.76;77.46;;
68279;Laerm;55108;51.790;10.960;2023-12-20T13:18:19;67.19;44.07;80.00;;
68279;Laerm;55108;51.790;10.960;2023-12-20T13:20:45;63.87;42.83;73.26;;
68279;Laerm;55108;51.790;10.960;2023-12-20T13:23:11;68.27;45.18;84.87;;
68279;Laerm;55108;51.790;10.960;2023-12-20T13:25:37;65.72;45.30;76.75;;